Time;durP1;ratioP1;P1;durP2;ratioP2;P2;SDS_P1;SDS_P2;PMS_P1;PMS_P2;Temp;Humidity;BMP_temperature;BMP_pressure;BME280_temperature;BME280_humidity;BME280_pressure;Samples;Min_cycle;Max_cycle;Signal;HPM_P1;HPM_P2
2022/07/17 00:00:22;;;;;;;5.17;4.77;;;19.00;75.80;;;;;;6080500;23;20465;-87
2022/07/17 00:02:49;;;;;;;5.83;4.37;;;18.90;76.10;;;;;;6083492;23;20452;-86
2022/07/17 00:05:16;;;;;;;5.60;5.10;;;18.80;76.90;;;;;;6087971;23;20459;-86
2022/07/17 00:07:44;;;;;;;4.90;4.37;;;18.70;76.80;;;;;;6087022;23;20452;-87
2022/07/17 00:10:11;;;;;;;5.07;4.60;;;18.70;77.40;;;;;;6073310;23;20511;-86
2022/07/17 00:12:39;;;;;;;4.13;3.83;;;18.60;78.20;;;;;;6073995;23;20524;-86
2022/07/17 00:15:07;;;;;;;4.10;3.70;;;18.60;78.20;;;;;;6084913;23;20491;-86
2022/07/17 00:17:34;;;;;;;4.67;4.20;;;18.60;78.50;;;;;;6085923;23;20445;-87
2022/07/17 00:20:01;;;;;;;4.00;3.70;;;18.50;78.50;;;;;;6082005;23;20473;-86
2022/07/17 00:22:28;;;;;;;4.00;3.70;;;18.50;79.40;;;;;;6084075;23;20536;-87
2022/07/17 00:24:55;;;;;;;4.43;3.60;;;18.50;79.10;;;;;;6087946;23;20452;-85
2022/07/17 00:27:22;;;;;;;4.00;3.70;;;18.40;79.10;;;;;;6087431;23;20445;-86
2022/07/17 00:29:51;;;;;;;3.63;3.27;;;18.50;79.50;;;;;;6083701;23;20539;-86
2022/07/17 00:32:18;;;;;;;3.73;3.43;;;18.50;79.60;;;;;;6078806;23;20440;-86
2022/07/17 00:34:45;;;;;;;4.60;4.20;;;18.50;80.20;;;;;;6079156;23;20483;-86
2022/07/17 00:37:12;;;;;;;5.57;3.93;;;18.40;80.60;;;;;;6084490;23;20448;-86
2022/07/17 00:39:39;;;;;;;4.00;3.60;;;18.40;81.90;;;;;;6085549;23;20460;-86
2022/07/17 00:42:06;;;;;;;4.20;3.53;;;18.40;83.10;;;;;;6087470;23;20455;-86
2022/07/17 00:44:33;;;;;;;4.23;3.93;;;18.30;83.40;;;;;;6077835;23;20458;-87
2022/07/17 00:47:01;;;;;;;4.63;4.23;;;18.40;84.10;;;;;;6084601;23;20451;-86
2022/07/17 00:49:28;;;;;;;4.50;4.13;;;18.30;83.90;;;;;;6082028;23;20587;-87
2022/07/17 00:51:56;;;;;;;4.83;4.00;;;18.30;85.20;;;;;;6079305;23;20448;-86
2022/07/17 00:54:24;;;;;;;3.93;3.63;;;18.40;85.70;;;;;;6072772;23;20568;-86
2022/07/17 00:56:52;;;;;;;4.00;3.70;;;18.20;85.50;;;;;;6082992;23;20441;-86
2022/07/17 00:59:20;;;;;;;4.50;4.00;;;18.40;86.60;;;;;;6080352;23;21000;-86
2022/07/17 01:01:47;;;;;;;4.17;3.50;;;18.30;87.20;;;;;;6087913;23;20812;-86
2022/07/17 01:04:15;;;;;;;4.37;4.00;;;18.20;86.80;;;;;;6080377;23;20452;-86
2022/07/17 01:06:42;;;;;;;4.40;4.00;;;18.30;86.80;;;;;;6083477;23;20452;-86
2022/07/17 01:09:11;;;;;;;4.67;3.60;;;18.30;86.80;;;;;;6087957;23;20465;-87
2022/07/17 01:11:38;;;;;;;4.40;4.00;;;18.30;87.00;;;;;;6081930;23;20865;-86
2022/07/17 01:14:05;;;;;;;4.43;4.13;;;18.30;87.00;;;;;;6077100;23;20494;-86
2022/07/17 01:16:33;;;;;;;4.13;3.83;;;18.30;87.00;;;;;;6089523;23;20445;-86
2022/07/17 01:19:00;;;;;;;5.00;3.67;;;18.30;87.10;;;;;;6070822;23;20470;-86
2022/07/17 01:21:39;;;;;;;4.83;4.33;;;18.30;87.40;;;;;;6088078;23;20566;-86
2022/07/17 01:24:07;;;;;;;5.03;3.73;;;18.30;87.50;;;;;;6083787;23;20457;-86
2022/07/17 01:26:34;;;;;;;4.90;4.30;;;18.30;87.40;;;;;;6087728;23;20941;-86
2022/07/17 01:29:01;;;;;;;4.27;3.87;;;18.30;87.70;;;;;;6085725;23;20833;-86
2022/07/17 01:31:28;;;;;;;5.90;4.17;;;18.30;87.50;;;;;;6087152;23;20451;-87
2022/07/17 01:33:55;;;;;;;3.97;3.57;;;18.20;87.60;;;;;;6073564;23;20472;-86
2022/07/17 01:36:23;;;;;;;4.60;4.20;;;18.20;87.70;;;;;;6079067;23;20770;-87
2022/07/17 01:38:52;;;;;;;4.00;3.70;;;18.20;88.00;;;;;;6088330;23;20474;-85
2022/07/17 01:41:19;;;;;;;3.93;3.63;;;18.20;87.90;;;;;;6079815;23;20929;-86
2022/07/17 01:43:46;;;;;;;4.37;3.80;;;18.20;87.80;;;;;;6086165;23;20448;-86
2022/07/17 01:46:13;;;;;;;4.30;4.00;;;18.20;87.80;;;;;;6073547;23;20445;-86
2022/07/17 01:48:40;;;;;;;4.20;3.90;;;18.20;87.90;;;;;;6080833;23;20879;-87
2022/07/17 01:51:07;;;;;;;4.20;3.90;;;18.20;87.90;;;;;;6088575;23;20983;-86
2022/07/17 01:53:34;;;;;;;6.47;4.43;;;18.20;87.90;;;;;;6076854;23;20485;-86
2022/07/17 01:56:03;;;;;;;4.40;4.07;;;18.20;88.30;;;;;;6072884;23;20975;-86
2022/07/17 01:58:30;;;;;;;4.20;3.77;;;18.10;88.40;;;;;;6083375;23;20554;-86
2022/07/17 02:00:58;;;;;;;4.70;3.90;;;18.10;88.40;;;;;;6083307;23;20457;-86
2022/07/17 02:03:25;;;;;;;4.93;4.50;;;18.20;88.80;;;;;;6080953;23;20825;-86
2022/07/17 02:05:52;;;;;;;4.20;3.80;;;18.10;88.60;;;;;;6078875;23;21008;-86
2022/07/17 02:08:19;;;;;;;4.60;4.10;;;18.10;89.00;;;;;;6081373;23;21034;-86
2022/07/17 02:10:47;;;;;;;5.40;4.77;;;18.10;89.10;;;;;;6086917;23;20512;-86
2022/07/17 02:13:15;;;;;;;4.40;4.07;;;17.90;89.90;;;;;;6087014;23;20968;-86
2022/07/17 02:15:42;;;;;;;6.30;4.40;;;17.90;90.50;;;;;;6071852;23;20469;-86
2022/07/17 02:18:09;;;;;;;4.70;4.30;;;17.80;90.80;;;;;;6088663;23;20454;-87
2022/07/17 02:20:36;;;;;;;5.03;4.50;;;17.60;91.30;;;;;;6090946;23;20501;-86
2022/07/17 02:23:03;;;;;;;4.97;4.57;;;17.50;91.70;;;;;;6086933;23;20449;-86
2022/07/17 02:25:30;;;;;;;5.10;4.60;;;17.40;92.10;;;;;;6085937;23;20455;-86
2022/07/17 02:27:57;;;;;;;4.20;3.90;;;17.40;92.60;;;;;;6081567;23;20456;-86
2022/07/17 02:30:25;;;;;;;5.13;4.73;;;17.20;93.00;;;;;;6090729;23;20463;-86
2022/07/17 02:32:52;;;;;;;4.73;4.33;;;17.20;93.60;;;;;;6081415;23;20463;-86
2022/07/17 02:35:19;;;;;;;4.83;4.00;;;17.10;94.00;;;;;;6082604;23;20472;-86
2022/07/17 02:37:46;;;;;;;4.60;4.20;;;17.00;94.60;;;;;;6078609;23;20478;-86
2022/07/17 02:40:13;;;;;;;4.90;4.40;;;16.90;94.90;;;;;;6087323;23;20440;-86
2022/07/17 02:42:41;;;;;;;7.43;4.53;;;16.80;95.10;;;;;;6080161;23;20457;-86
2022/07/17 02:45:09;;;;;;;5.57;5.00;;;16.90;95.30;;;;;;6089646;23;20457;-85
2022/07/17 02:47:38;;;;;;;4.60;4.30;;;16.60;95.60;;;;;;6072058;23;20447;-86
2022/07/17 02:50:06;;;;;;;5.60;5.20;;;16.50;96.20;;;;;;6088678;23;20848;-86
2022/07/17 02:52:34;;;;;;;5.73;5.33;;;16.40;96.80;;;;;;6078264;23;20442;-86
2022/07/17 02:55:01;;;;;;;5.93;5.53;;;16.30;97.50;;;;;;6071230;23;20529;-85
2022/07/17 02:57:28;;;;;;;6.87;6.27;;;16.20;98.50;;;;;;6072811;23;20448;-85
2022/07/17 02:59:55;;;;;;;6.97;6.33;;;16.10;99.40;;;;;;6088317;23;20543;-85
2022/07/17 03:02:23;;;;;;;7.60;6.50;;;16.00;99.90;;;;;;6084160;23;20502;-88
2022/07/17 03:04:51;;;;;;;7.27;6.57;;;15.90;99.90;;;;;;6080664;23;20528;-85
2022/07/17 03:07:18;;;;;;;6.70;6.20;;;15.50;99.90;;;;;;6086992;23;20810;-85
2022/07/17 03:09:45;;;;;;;6.50;5.90;;;15.70;99.90;;;;;;6085087;23;20469;-85
2022/07/17 03:12:12;;;;;;;7.57;6.90;;;15.60;99.90;;;;;;6083443;23;20520;-84
2022/07/17 03:14:39;;;;;;;7.40;6.70;;;15.60;99.90;;;;;;6081131;23;20823;-86
2022/07/17 03:17:06;;;;;;;7.33;6.63;;;15.60;99.90;;;;;;6083669;23;20510;-86
2022/07/17 03:19:33;;;;;;;7.40;6.80;;;15.50;99.90;;;;;;6085507;23;20553;-86
2022/07/17 03:22:02;;;;;;;6.43;5.93;;;15.50;99.90;;;;;;6076718;23;20455;-87
2022/07/17 03:24:29;;;;;;;7.87;6.70;;;15.60;99.90;;;;;;6082720;23;20548;-86
2022/07/17 03:26:56;;;;;;;7.10;6.40;;;15.50;99.90;;;;;;6079950;23;20453;-86
2022/07/17 03:29:23;;;;;;;6.80;6.17;;;15.50;99.90;;;;;;6088394;23;20974;-86
2022/07/17 03:31:51;;;;;;;6.20;5.80;;;15.50;99.90;;;;;;6078653;23;20478;-86
2022/07/17 03:34:18;;;;;;;7.17;6.63;;;15.50;99.90;;;;;;6083506;23;20806;-86
2022/07/17 03:36:44;;;;;;;6.80;6.13;;;15.50;99.90;;;;;;6080470;23;20520;-86
2022/07/17 03:39:13;;;;;;;6.73;6.23;;;15.50;99.90;;;;;;6087446;23;20478;-85
2022/07/17 03:41:40;;;;;;;6.17;5.60;;;15.50;99.90;;;;;;6086840;23;21257;-86
2022/07/17 03:44:07;;;;;;;6.87;6.27;;;15.60;99.90;;;;;;6076150;23;20956;-86
2022/07/17 03:46:35;;;;;;;7.23;6.57;;;15.60;99.90;;;;;;6086302;23;20449;-87
2022/07/17 03:49:02;;;;;;;6.10;5.50;;;15.70;99.90;;;;;;6086849;23;21003;-85
2022/07/17 03:51:29;;;;;;;5.67;5.23;;;15.70;99.90;;;;;;6085746;23;20828;-87
2022/07/17 03:53:56;;;;;;;5.83;5.43;;;15.80;99.90;;;;;;6088394;23;20452;-86
2022/07/17 03:56:25;;;;;;;5.17;4.83;;;15.80;99.90;;;;;;6082080;23;20481;-86
2022/07/17 03:58:52;;;;;;;5.30;4.90;;;15.80;99.90;;;;;;6088395;23;20479;-86
2022/07/17 04:01:19;;;;;;;5.93;5.43;;;15.90;99.90;;;;;;6082459;23;20444;-86
2022/07/17 04:03:46;;;;;;;7.87;6.00;;;15.90;99.90;;;;;;6085848;23;20485;-86
2022/07/17 04:06:13;;;;;;;6.60;5.93;;;16.00;99.90;;;;;;6089625;23;20453;-87
2022/07/17 04:08:41;;;;;;;6.53;6.00;;;16.00;99.90;;;;;;6083585;23;20463;-85
2022/07/17 04:11:08;;;;;;;7.53;6.90;;;16.00;99.90;;;;;;6088306;23;20514;-86
2022/07/17 04:13:36;;;;;;;6.90;6.20;;;16.10;99.90;;;;;;6087287;23;20448;-86
2022/07/17 04:16:04;;;;;;;6.60;6.03;;;16.10;99.90;;;;;;6083543;23;20488;-85
2022/07/17 04:18:34;;;;;;;6.80;6.13;;;16.10;99.90;;;;;;6087559;23;21121;-86
2022/07/17 04:21:04;;;;;;;5.93;5.43;;;16.10;99.90;;;;;;6090684;23;20445;-86
2022/07/17 04:23:31;;;;;;;7.03;6.53;;;16.10;99.90;;;;;;6079519;23;20444;-86
2022/07/17 04:25:58;;;;;;;7.67;6.23;;;16.00;99.90;;;;;;6089374;23;20443;-86
2022/07/17 04:28:26;;;;;;;6.80;6.20;;;15.90;99.90;;;;;;6082633;23;20513;-86
2022/07/17 04:30:54;;;;;;;6.33;5.80;;;15.80;99.90;;;;;;6084117;23;20812;-87
2022/07/17 04:33:22;;;;;;;7.20;6.50;;;15.70;99.90;;;;;;6083760;23;20453;-85
2022/07/17 04:35:49;;;;;;;6.50;5.87;;;15.60;99.90;;;;;;6087436;23;20848;-86
2022/07/17 04:38:16;;;;;;;6.27;5.70;;;15.50;99.90;;;;;;6086665;23;21199;-86
2022/07/17 04:40:43;;;;;;;6.70;6.10;;;15.50;99.90;;;;;;6085131;23;20446;-85
2022/07/17 04:43:10;;;;;;;7.57;6.90;;;15.50;99.90;;;;;;6084754;23;20441;-86
2022/07/17 04:45:37;;;;;;;7.43;6.73;;;15.60;99.90;;;;;;6078006;23;20612;-86
2022/07/17 04:48:06;;;;;;;7.50;6.80;;;15.70;99.90;;;;;;6075511;23;20462;-86
2022/07/17 04:50:33;;;;;;;6.90;6.40;;;15.80;99.90;;;;;;6088116;23;20445;-86
2022/07/17 04:53:01;;;;;;;7.70;7.00;;;15.80;99.90;;;;;;6088998;23;20825;-86
2022/07/17 04:55:28;;;;;;;7.23;6.40;;;16.00;99.90;;;;;;6080032;23;21049;-86
2022/07/17 04:57:55;;;;;;;7.30;6.60;;;16.10;99.90;;;;;;6089271;23;20472;-86
2022/07/17 05:00:23;;;;;;;7.70;7.00;;;16.20;99.90;;;;;;6078430;23;20439;-86
2022/07/17 05:02:50;;;;;;;6.33;5.87;;;16.30;99.90;;;;;;6085461;23;20455;-85
2022/07/17 05:05:18;;;;;;;7.50;6.77;;;16.30;99.90;;;;;;6085670;23;20479;-86
2022/07/17 05:07:45;;;;;;;7.73;7.00;;;16.40;99.90;;;;;;6088474;23;20491;-86
2022/07/17 05:10:12;;;;;;;9.60;6.27;;;16.50;99.90;;;;;;6090255;23;20527;-86
2022/07/17 05:12:39;;;;;;;7.00;6.40;;;16.50;99.90;;;;;;6077407;23;20448;-86
2022/07/17 05:15:07;;;;;;;7.70;7.13;;;16.60;99.90;;;;;;6082274;23;20446;-86
2022/07/17 05:17:34;;;;;;;7.83;7.23;;;16.60;99.90;;;;;;6085199;23;20503;-84
2022/07/17 05:20:02;;;;;;;7.53;6.93;;;16.60;99.90;;;;;;6088635;23;20444;-85
2022/07/17 05:22:30;;;;;;;7.97;7.37;;;16.60;99.90;;;;;;6086841;23;20480;-86
2022/07/17 05:24:57;;;;;;;7.60;7.00;;;16.50;99.90;;;;;;6068941;23;20456;-85
2022/07/17 05:27:24;;;;;;;7.40;6.80;;;16.50;99.90;;;;;;6075968;23;20442;-86
2022/07/17 05:29:51;;;;;;;8.10;7.40;;;16.50;99.90;;;;;;6076908;23;21001;-86
2022/07/17 05:32:18;;;;;;;7.40;6.80;;;16.50;99.90;;;;;;6080492;23;20500;-85
2022/07/17 05:34:45;;;;;;;7.87;7.27;;;16.60;99.90;;;;;;6072498;23;21372;-85
2022/07/17 05:37:12;;;;;;;7.67;7.07;;;16.60;99.90;;;;;;6078899;23;21019;-85
2022/07/17 05:39:41;;;;;;;7.00;6.40;;;16.60;99.90;;;;;;6083153;23;20475;-86
2022/07/17 05:42:08;;;;;;;6.53;5.93;;;16.60;99.90;;;;;;6080856;23;20929;-86
2022/07/17 05:44:35;;;;;;;6.87;6.30;;;16.70;99.90;;;;;;6087448;23;20448;-86
2022/07/17 05:47:02;;;;;;;6.63;6.07;;;16.70;99.90;;;;;;6077953;23;20436;-85
2022/07/17 05:49:29;;;;;;;5.93;5.40;;;16.70;99.90;;;;;;6089444;23;20488;-86
2022/07/17 05:51:56;;;;;;;7.90;6.30;;;16.80;99.90;;;;;;6086596;23;20456;-86
2022/07/17 05:54:23;;;;;;;5.60;5.20;;;17.00;99.90;;;;;;6076760;23;20455;-86
2022/07/17 05:56:52;;;;;;;6.93;6.40;;;17.00;99.90;;;;;;6074748;23;20489;-85
2022/07/17 05:59:19;;;;;;;6.30;5.90;;;17.10;99.90;;;;;;6088260;23;20479;-86
2022/07/17 06:01:46;;;;;;;6.77;6.13;;;17.20;99.90;;;;;;6086934;23;20448;-85
2022/07/17 06:04:13;;;;;;;5.70;5.30;;;17.30;99.90;;;;;;6086546;23;20973;-86
2022/07/17 06:06:40;;;;;;;6.10;5.60;;;17.40;99.90;;;;;;6087843;23;20464;-86
2022/07/17 06:09:07;;;;;;;5.80;5.30;;;17.50;99.90;;;;;;6068648;23;20469;-85
2022/07/17 06:11:34;;;;;;;6.53;6.03;;;17.60;99.90;;;;;;6066066;23;20552;-85
2022/07/17 06:14:03;;;;;;;6.30;5.80;;;17.70;99.90;;;;;;6067755;23;20974;-85
2022/07/17 06:16:30;;;;;;;6.30;5.70;;;17.80;99.90;;;;;;6084083;23;20477;-86
2022/07/17 06:18:57;;;;;;;5.53;5.13;;;17.90;99.90;;;;;;6083951;23;20998;-85
2022/07/17 06:21:24;;;;;;;5.00;4.60;;;18.00;99.90;;;;;;6084456;23;20440;-85
2022/07/17 06:23:51;;;;;;;4.60;4.20;;;18.10;99.90;;;;;;6077644;23;20456;-85
2022/07/17 06:26:19;;;;;;;4.50;4.20;;;18.30;99.90;;;;;;6081437;23;20457;-88
2022/07/17 06:28:46;;;;;;;4.70;3.83;;;18.40;99.90;;;;;;6075431;23;20878;-85
2022/07/17 06:31:15;;;;;;;4.00;3.50;;;18.60;99.90;;;;;;6070762;23;20531;-85
2022/07/17 06:33:42;;;;;;;4.70;4.30;;;18.70;99.90;;;;;;6086852;23;20452;-85
2022/07/17 06:36:09;;;;;;;3.90;3.60;;;18.90;99.90;;;;;;6072165;23;20473;-87
2022/07/17 06:38:36;;;;;;;4.10;3.80;;;19.10;99.90;;;;;;6082319;23;20476;-85
2022/07/17 06:41:03;;;;;;;4.67;3.60;;;19.30;99.90;;;;;;6087214;23;20468;-93
2022/07/17 06:43:31;;;;;;;4.80;4.07;;;19.50;99.70;;;;;;6084684;23;20935;-91
2022/07/17 06:45:58;;;;;;;3.57;3.27;;;19.60;99.50;;;;;;6085966;23;20433;-92
2022/07/17 06:48:32;;;;;;;3.40;3.20;;;19.70;98.80;;;;;;6083420;23;20469;-92
2022/07/17 06:51:00;;;;;;;3.20;3.00;;;19.80;98.30;;;;;;6088500;23;20445;-91
2022/07/17 06:53:27;;;;;;;3.50;3.20;;;20.00;98.00;;;;;;6098098;23;20434;-92
2022/07/17 06:55:54;;;;;;;3.57;3.27;;;20.20;97.80;;;;;;6101530;23;20475;-92
2022/07/17 06:58:21;;;;;;;4.47;3.53;;;20.30;97.10;;;;;;6087974;23;20465;-92
2022/07/17 07:00:52;;;;;;;3.73;3.30;;;20.40;96.00;;;;;;6082284;23;20441;-89
2022/07/17 07:03:20;;;;;;;3.20;2.97;;;20.50;95.60;;;;;;6081487;23;20445;-93
2022/07/17 07:05:48;;;;;;;3.50;3.20;;;20.50;95.10;;;;;;6084420;23;20445;-84
2022/07/17 07:08:15;;;;;;;3.30;3.00;;;20.50;94.70;;;;;;6082077;23;20473;-86
2022/07/17 07:10:44;;;;;;;3.60;3.10;;;20.60;94.60;;;;;;6073584;23;20480;-84
2022/07/17 07:13:12;;;;;;;3.87;2.97;;;20.70;94.10;;;;;;6075009;23;21146;-84
2022/07/17 07:20:49;;;;;;;4.53;3.17;;;21.00;92.40;;;;;;6129248;23;20583;-82
2022/07/17 07:23:16;;;;;;;3.33;3.07;;;21.10;92.90;;;;;;6120129;23;20440;-81
2022/07/17 07:25:44;;;;;;;3.00;2.80;;;21.10;92.10;;;;;;6114715;23;20434;-80
2022/07/17 07:28:11;;;;;;;4.00;2.90;;;21.30;92.30;;;;;;6123451;23;20475;-81
2022/07/17 07:30:39;;;;;;;2.70;2.27;;;21.50;91.50;;;;;;6114696;23;20471;-81
2022/07/17 07:33:06;;;;;;;3.00;2.80;;;21.70;91.10;;;;;;6107107;23;20784;-81
2022/07/17 07:35:33;;;;;;;4.47;2.70;;;22.00;90.20;;;;;;6119013;23;20563;-80
2022/07/17 07:38:02;;;;;;;2.97;2.20;;;22.40;89.00;;;;;;6117146;23;20471;-79
2022/07/17 07:40:30;;;;;;;5.37;2.50;;;23.00;86.20;;;;;;6121524;23;21006;-82
2022/07/17 07:42:57;;;;;;;4.13;2.60;;;23.70;85.00;;;;;;6117270;23;20464;-79
2022/07/17 07:45:24;;;;;;;3.10;2.90;;;24.50;81.30;;;;;;6111254;23;20438;-79
2022/07/17 07:47:51;;;;;;;3.00;2.70;;;25.40;77.90;;;;;;6111513;23;20543;-79
2022/07/17 07:50:19;;;;;;;3.53;3.07;;;26.20;73.70;;;;;;6116914;23;20434;-79
2022/07/17 07:52:46;;;;;;;2.80;2.60;;;26.70;69.50;;;;;;6121036;23;20475;-79
2022/07/17 07:55:15;;;;;;;2.70;2.50;;;27.20;67.90;;;;;;6118138;23;20428;-79
2022/07/17 07:57:42;;;;;;;2.60;2.50;;;27.90;66.40;;;;;;6129478;23;20467;-80
2022/07/17 15:24:46;;;;;;;1.93;1.73;;;32.20;38.20;;;;;;6030319;23;20559;-91
2022/07/17 15:27:14;;;;;;;1.90;1.80;;;32.10;38.80;;;;;;6012630;23;20464;-92
2022/07/17 15:29:41;;;;;;;1.80;1.70;;;32.20;38.70;;;;;;6026128;23;20436;-93
2022/07/17 15:32:08;;;;;;;2.07;1.93;;;32.30;38.70;;;;;;6030534;23;20449;-93
2022/07/17 15:34:37;;;;;;;2.50;1.90;;;32.50;37.90;;;;;;6022267;23;20951;-93
2022/07/17 15:37:04;;;;;;;1.87;1.70;;;32.50;37.90;;;;;;6026989;23;20471;-92
2022/07/17 15:39:31;;;;;;;5.40;5.00;;;32.60;37.80;;;;;;6024680;23;20449;-93
2022/07/17 15:42:00;;;;;;;2.00;1.90;;;32.60;38.00;;;;;;6024509;23;20443;-93
2022/07/17 15:44:27;;;;;;;1.90;1.80;;;32.40;37.50;;;;;;6037140;23;20484;-93
2022/07/17 15:46:54;;;;;;;2.17;1.70;;;32.50;38.70;;;;;;6027767;23;20471;-93
2022/07/17 15:49:21;;;;;;;2.17;1.60;;;32.60;38.60;;;;;;6026108;23;20440;-93
2022/07/17 15:51:49;;;;;;;1.73;1.63;;;32.60;38.00;;;;;;6024197;23;20490;-91
2022/07/17 15:54:17;;;;;;;1.97;1.70;;;32.80;37.40;;;;;;6029386;23;20437;-95
2022/07/17 15:56:48;;;;;;;1.73;1.63;;;33.10;37.30;;;;;;6032624;23;20476;-87
2022/07/17 15:59:16;;;;;;;1.73;1.63;;;33.70;37.00;;;;;;6019221;23;20486;-88
2022/07/17 16:01:43;;;;;;;1.93;1.83;;;34.30;36.40;;;;;;6018648;23;20440;-82
2022/07/17 16:04:14;;;;;;;1.90;1.70;;;34.90;36.60;;;;;;6017990;23;20508;-91
2022/07/17 16:06:41;;;;;;;1.60;1.50;;;35.40;35.30;;;;;;6025273;23;20462;-91
2022/07/17 16:09:11;;;;;;;1.50;1.40;;;36.10;35.00;;;;;;6014389;23;20493;-92
2022/07/17 16:11:39;;;;;;;1.83;1.73;;;36.70;33.60;;;;;;6014499;23;20781;-91
2022/07/17 16:14:06;;;;;;;2.43;1.60;;;36.50;34.00;;;;;;6032535;23;20444;-92
2022/07/17 16:16:34;;;;;;;2.43;1.60;;;36.20;34.00;;;;;;6073461;23;20543;-90
2022/07/17 16:19:01;;;;;;;1.70;1.60;;;35.40;33.70;;;;;;6047561;23;20808;-91
2022/07/17 16:21:28;;;;;;;1.87;1.60;;;34.80;34.50;;;;;;6045404;23;21018;-91
2022/07/17 16:23:55;;;;;;;1.70;1.60;;;34.00;34.60;;;;;;6055880;23;20470;-89
2022/07/17 16:26:24;;;;;;;1.87;1.77;;;33.20;34.80;;;;;;6050919;23;20509;-91
2022/07/17 16:28:51;;;;;;;1.50;1.40;;;32.70;35.50;;;;;;6053219;23;20513;-91
2022/07/17 16:31:18;;;;;;;1.80;1.70;;;32.20;35.80;;;;;;6038113;23;20471;-91
2022/07/17 16:33:47;;;;;;;1.70;1.60;;;31.90;37.10;;;;;;6025491;23;20432;-91
2022/07/17 16:36:25;;;;;;;2.47;1.67;;;31.40;36.80;;;;;;6027681;23;20469;-91
2022/07/17 16:38:52;;;;;;;4.43;1.93;;;31.30;37.50;;;;;;6013063;23;20927;-91
2022/07/17 16:41:25;;;;;;;1.80;1.70;;;31.10;37.30;;;;;;6029256;23;20439;-91
2022/07/17 16:43:52;;;;;;;1.80;1.60;;;31.00;37.30;;;;;;6016331;23;20485;-90
2022/07/17 16:46:20;;;;;;;2.00;1.67;;;30.70;37.40;;;;;;6028603;23;20813;-91
2022/07/17 16:48:48;;;;;;;2.27;1.63;;;30.60;38.00;;;;;;6015467;23;20477;-90
2022/07/17 16:51:15;;;;;;;1.73;1.63;;;30.50;37.90;;;;;;6030969;23;20433;-90
2022/07/17 16:53:42;;;;;;;3.10;1.90;;;30.50;38.70;;;;;;6031158;23;20529;-91
2022/07/17 16:56:09;;;;;;;2.20;2.00;;;30.50;38.60;;;;;;6040052;23;21030;-91
2022/07/17 16:58:37;;;;;;;2.40;1.73;;;30.40;38.80;;;;;;6040996;23;20491;-91
2022/07/17 17:01:04;;;;;;;1.80;1.70;;;30.40;38.50;;;;;;6007903;23;20516;-91
2022/07/17 17:03:31;;;;;;;1.70;1.60;;;30.30;38.20;;;;;;6018918;23;20469;-91
2022/07/17 17:06:00;;;;;;;1.93;1.70;;;30.30;38.20;;;;;;6033069;23;20456;-92
2022/07/17 17:08:26;;;;;;;2.07;1.87;;;30.10;38.10;;;;;;6037476;23;20433;-91
2022/07/17 17:10:55;;;;;;;2.40;1.47;;;30.10;38.60;;;;;;6023637;23;20438;-90
2022/07/17 17:13:22;;;;;;;1.87;1.60;;;30.00;39.20;;;;;;6012451;23;20441;-80
2022/07/17 17:15:54;;;;;;;2.10;1.90;;;30.00;39.00;;;;;;6024342;23;20496;-88
2022/07/17 17:18:21;;;;;;;1.67;1.57;;;30.00;38.40;;;;;;6030596;23;20839;-89
2022/07/17 17:20:48;;;;;;;2.83;1.67;;;30.00;38.30;;;;;;6030004;23;20451;-88
2022/07/17 17:23:17;;;;;;;2.60;1.80;;;29.90;38.00;;;;;;6020175;23;21182;-92
2022/07/17 17:25:45;;;;;;;1.60;1.50;;;29.70;38.00;;;;;;6030859;23;20466;-89
2022/07/17 17:28:13;;;;;;;1.50;1.40;;;29.70;38.40;;;;;;6016369;23;20440;-90
2022/07/17 17:30:40;;;;;;;1.87;1.73;;;29.50;38.40;;;;;;6018570;23;20536;-90
2022/07/17 17:33:07;;;;;;;1.70;1.60;;;29.50;38.50;;;;;;6016167;23;20508;-88
2022/07/17 17:35:34;;;;;;;1.80;1.53;;;29.40;38.50;;;;;;6031311;23;20464;-89
2022/07/17 17:38:02;;;;;;;3.57;1.40;;;29.30;38.70;;;;;;6025580;23;20459;-88
2022/07/17 17:40:31;;;;;;;1.60;1.50;;;29.20;38.50;;;;;;6012434;23;20443;-79
2022/07/17 17:42:58;;;;;;;1.87;1.63;;;29.10;39.30;;;;;;6002380;23;20476;-84
2022/07/17 17:45:25;;;;;;;2.00;1.70;;;29.00;40.10;;;;;;6008566;23;20568;-83
2022/07/17 17:47:52;;;;;;;2.13;1.47;;;28.90;39.50;;;;;;6013019;23;20789;-83
2022/07/17 17:50:19;;;;;;;2.40;1.40;;;28.90;39.50;;;;;;6009690;23;20852;-86
2022/07/17 17:52:47;;;;;;;2.03;1.83;;;28.70;39.40;;;;;;6010350;23;21215;-82
2022/07/17 17:55:14;;;;;;;2.30;1.63;;;28.60;38.80;;;;;;6014963;23;20461;-86
2022/07/17 17:57:43;;;;;;;3.43;1.40;;;28.50;40.10;;;;;;6007932;23;21179;-85
2022/07/17 18:00:10;;;;;;;1.50;1.40;;;28.50;40.10;;;;;;6009953;23;21142;-83
2022/07/17 18:02:37;;;;;;;1.70;1.60;;;28.20;39.70;;;;;;6007097;23;20524;-84
2022/07/17 18:05:06;;;;;;;1.63;1.50;;;28.20;40.40;;;;;;6013148;23;20546;-85
2022/07/17 18:07:33;;;;;;;1.70;1.60;;;28.10;42.40;;;;;;6014583;23;20433;-85
2022/07/17 18:10:00;;;;;;;2.93;1.53;;;28.00;41.20;;;;;;6009306;23;21143;-85
2022/07/17 18:12:27;;;;;;;2.60;1.80;;;27.90;43.00;;;;;;6010989;23;20442;-85
2022/07/17 18:14:56;;;;;;;1.83;1.70;;;27.90;42.50;;;;;;6018731;23;20476;-85
2022/07/17 18:17:23;;;;;;;1.80;1.70;;;27.60;40.50;;;;;;6008006;23;20437;-84
2022/07/17 18:19:50;;;;;;;1.53;1.43;;;27.50;43.00;;;;;;6016507;23;20512;-85
2022/07/17 18:22:17;;;;;;;1.43;1.33;;;27.50;42.40;;;;;;6010357;23;20521;-85
2022/07/17 18:24:44;;;;;;;1.57;1.47;;;27.40;41.50;;;;;;6007726;23;20476;-80
2022/07/17 18:27:11;;;;;;;4.20;1.87;;;27.40;42.40;;;;;;6020841;23;20833;-79
2022/07/17 18:29:39;;;;;;;3.80;2.00;;;27.30;39.90;;;;;;6008946;23;21142;-80
2022/07/17 18:32:08;;;;;;;2.83;2.53;;;27.30;40.50;;;;;;6007100;23;20445;-80
2022/07/17 18:34:35;;;;;;;2.23;2.03;;;27.20;41.00;;;;;;6022348;23;20456;-80
2022/07/17 18:37:02;;;;;;;2.00;1.80;;;27.20;41.00;;;;;;6027099;23;20451;-80
2022/07/17 18:39:29;;;;;;;2.80;2.27;;;27.10;41.70;;;;;;6024484;23;20476;-80
2022/07/17 18:41:56;;;;;;;2.93;1.83;;;27.10;41.20;;;;;;6023437;23;20438;-81
2022/07/17 18:44:23;;;;;;;2.00;1.60;;;27.10;41.60;;;;;;6029896;23;20460;-79
2022/07/17 18:46:50;;;;;;;2.20;1.63;;;27.10;41.80;;;;;;6020096;23;20485;-80
2022/07/17 18:49:19;;;;;;;1.80;1.50;;;27.00;42.20;;;;;;6022048;23;20443;-79
2022/07/17 18:51:46;;;;;;;2.90;2.00;;;27.00;42.20;;;;;;6006165;23;20448;-79
2022/07/17 18:54:13;;;;;;;3.43;1.80;;;27.00;42.20;;;;;;6010107;23;20520;-80
2022/07/17 18:56:40;;;;;;;1.93;1.70;;;27.00;43.10;;;;;;6017455;23;20469;-79
2022/07/17 18:59:07;;;;;;;2.10;1.90;;;26.90;42.00;;;;;;6025775;23;21086;-79
2022/07/17 19:01:34;;;;;;;2.60;1.87;;;26.90;42.50;;;;;;6023759;23;20447;-79
2022/07/17 19:04:01;;;;;;;2.07;1.60;;;26.80;42.00;;;;;;6030104;23;20473;-79
2022/07/17 19:06:29;;;;;;;1.80;1.50;;;26.70;42.00;;;;;;6023096;23;20540;-79
2022/07/17 19:08:56;;;;;;;1.50;1.40;;;26.70;42.30;;;;;;6014271;23;20464;-79
2022/07/17 19:11:24;;;;;;;1.67;1.47;;;26.70;42.70;;;;;;6016030;23;20503;-79
2022/07/17 19:13:51;;;;;;;1.90;1.80;;;26.50;42.90;;;;;;6015854;23;20444;-79
2022/07/17 19:16:17;;;;;;;2.33;1.80;;;26.50;42.80;;;;;;6014130;23;20460;-79
2022/07/17 19:18:45;;;;;;;3.30;2.10;;;26.40;43.50;;;;;;6022553;23;20943;-79
2022/07/17 19:21:12;;;;;;;3.17;2.00;;;26.30;42.60;;;;;;6024821;23;20441;-79
2022/07/17 19:23:40;;;;;;;1.80;1.70;;;26.20;42.70;;;;;;6028394;23;20463;-79
2022/07/17 19:26:07;;;;;;;2.13;1.80;;;26.10;43.00;;;;;;6032888;23;21005;-80
2022/07/17 19:28:34;;;;;;;2.50;2.40;;;26.10;43.10;;;;;;6031897;23;20452;-79
2022/07/17 19:31:02;;;;;;;1.70;1.60;;;26.00;43.30;;;;;;6026464;23;21015;-81
2022/07/17 19:33:30;;;;;;;1.60;1.50;;;25.90;43.20;;;;;;6040097;23;20433;-81
2022/07/17 19:35:57;;;;;;;1.80;1.70;;;25.80;43.30;;;;;;6039600;23;20488;-81
2022/07/17 19:38:24;;;;;;;2.43;1.83;;;25.80;43.80;;;;;;6038742;23;20498;-82
2022/07/17 19:40:52;;;;;;;2.10;1.83;;;25.70;43.90;;;;;;6033520;23;20466;-81
2022/07/17 19:43:19;;;;;;;1.80;1.47;;;25.60;43.60;;;;;;6024397;23;20476;-80
2022/07/17 19:45:46;;;;;;;2.40;1.60;;;25.50;43.90;;;;;;6023031;23;20483;-81
2022/07/17 19:48:13;;;;;;;1.70;1.60;;;25.50;44.30;;;;;;6016258;23;20445;-80
2022/07/17 19:50:40;;;;;;;1.70;1.60;;;25.40;44.10;;;;;;6009027;23;20543;-80
2022/07/17 19:53:07;;;;;;;1.67;1.57;;;25.30;44.40;;;;;;6025007;23;20499;-80
2022/07/17 19:56:11;;;;;;;2.20;2.00;;;25.20;44.80;;;;;;6021919;23;20519;-80
2022/07/17 19:58:23;;;;;;;1.63;1.53;;;25.20;44.80;;;;;;6011682;23;20500;-80
2022/07/17 20:00:51;;;;;;;4.67;1.70;;;25.10;45.00;;;;;;6018797;23;20480;-80
2022/07/17 20:03:18;;;;;;;3.10;1.97;;;25.00;44.70;;;;;;6013181;23;20781;-80
2022/07/17 20:05:45;;;;;;;2.30;1.90;;;25.00;45.10;;;;;;6029288;23;20571;-80
2022/07/17 20:08:13;;;;;;;2.37;1.97;;;24.90;45.20;;;;;;6022229;23;20445;-81
2022/07/17 20:10:40;;;;;;;1.87;1.77;;;24.90;45.20;;;;;;6018521;23;20436;-80
2022/07/17 20:13:07;;;;;;;17.40;13.30;;;24.80;45.20;;;;;;6020522;23;20490;-79
2022/07/17 20:15:37;;;;;;;3.30;3.00;;;24.70;45.40;;;;;;6012738;23;20526;-81
2022/07/17 20:18:04;;;;;;;2.20;2.00;;;24.70;45.20;;;;;;6028233;23;20452;-79